LFGJ

Dole-Tavaux Airport

Airport
ICAO code
LFGJ
IATA Code
DLE
Summary
ICAO Region
EUR
ICAO Territory
Location

, Franche-Comte

Serving
Dole
Elevation
645 ft
Coordinates
47° 2' 20" N , 5° 25' 38" E
Metar
Observation
LFGJ 021330Z AUTO 35007KT 9999 FEW016 OVC049 05/03 Q1016 TEMPO BKN013
Station
Dole Tavaux
Date/Time
2022-12-02 13:30:00
Wind direction
350°
Wind speed
07 kts
Lowest cloud amount
few clouds
Temperature
5°C
Dew point
3°C
Humidity
86%
QNH
1016 hPa
Weather condition
n/a

Runways

Designator Length Width Surface Rops
5/23 2231 45 ASP Yes/Yes

Airport map

Aerial View

SKYbrary Partners:

Safety knowledge contributed by: